Wetterdaten: Woche 14.11.11 - 20.11.11 (KW46)
Datum Zeit Temp. Innen Temp. Aussen UV X Diff Temp. Feuchte Inne Feuchte Auss Sonnenschein Luftdruck Regen ab 0,1 Wind Sonnenschein T Regendauer Windben
14.11.2011 00:00 15,9 C 4,7 C 0,0 UV-I 0,0 C 52 % 87 % 0 % 1027,7 hPa 0,0 l/m 4,6 km/h (1 Bft) 0,00 h 0,00 h 7,1 km/h (2 Bft)
14.11.2011 01:00 15,8 C 4,8 C 0,0 UV-I 0,0 C 51 % 86 % 0 % 1027,1 hPa 0,0 l/m 7,2 km/h (2 Bft) 0,00 h 0,00 h 8,1 km/h (2 Bft)
14.11.2011 02:00 15,6 C 4,4 C 0,0 UV-I 0,0 C 51 % 86 % 0 % 1026,6 hPa 0,0 l/m 4,1 km/h (1 Bft) 0,00 h 0,00 h 4,8 km/h (1 Bft)
14.11.2011 03:00 15,6 C 4,0 C 0,0 UV-I 0,0 C 50 % 86 % 0 % 1026,3 hPa 0,0 l/m 3,5 km/h (1 Bft) 0,00 h 0,00 h 4,3 km/h (1 Bft)
14.11.2011 04:00 15,6 C 3,7 C 0,0 UV-I 0,0 C 50 % 86 % 0 % 1025,9 hPa 0,0 l/m 5,1 km/h (1 Bft) 0,00 h 0,00 h 6,3 km/h (2 Bft)
14.11.2011 05:00 15,5 C 3,5 C 0,0 UV-I 0,0 C 50 % 86 % 0 % 1025,6 hPa 0,0 l/m 4,2 km/h (1 Bft) 0,00 h 0,00 h 6,4 km/h (2 Bft)
14.11.2011 06:00 15,4 C 3,3 C 0,0 UV-I 0,0 C 49 % 86 % 0 % 1025,6 hPa 0,0 l/m 4,5 km/h (1 Bft) 0,00 h 0,00 h 5,0 km/h (1 Bft)
14.11.2011 07:00 15,3 C 3,1 C 0,0 UV-I 0,0 C 49 % 86 % 0 % 1025,4 hPa 0,0 l/m 5,6 km/h (1 Bft) 0,00 h 0,00 h 8,0 km/h (2 Bft)
14.11.2011 08:00 15,2 C 3,1 C 0,0 UV-I 0,0 C 49 % 86 % 0 % 1025,2 hPa 0,0 l/m 6,3 km/h (2 Bft) 0,00 h 0,00 h 7,9 km/h (2 Bft)
14.11.2011 09:00 15,2 C 4,1 C 0,0 UV-I 1,4 C 49 % 85 % 38 % 1024,9 hPa 0,0 l/m 9,8 km/h (2 Bft) 0,40 h 0,00 h 11,5 km/h (2 Bft)
14.11.2011 10:00 15,3 C 6,3 C 0,2 UV-I 4,4 C 49 % 81 % 100 % 1024,7 hPa 0,0 l/m 10,2 km/h (2 Bft) 1,00 h 0,00 h 11,2 km/h (2 Bft)
14.11.2011 11:00 15,6 C 8,2 C 0,6 UV-I 4,9 C 48 % 76 % 100 % 1024,4 hPa 0,0 l/m 8,5 km/h (2 Bft) 1,00 h 0,00 h 8,5 km/h (2 Bft)
14.11.2011 12:00 15,9 C 10,2 C 0,8 UV-I 5,4 C 48 % 69 % 100 % 1024,2 hPa 0,0 l/m 5,5 km/h (1 Bft) 1,00 h 0,00 h 6,2 km/h (2 Bft)
14.11.2011 13:00 16,9 C 11,6 C 0,7 UV-I 5,0 C 48 % 62 % 100 % 1024,1 hPa 0,0 l/m 5,1 km/h (1 Bft) 1,00 h 0,00 h 6,6 km/h (2 Bft)
14.11.2011 14:00 18,6 C 12,5 C 0,4 UV-I 4,3 C 45 % 56 % 100 % 1024,4 hPa 0,0 l/m 5,7 km/h (1 Bft) 1,00 h 0,00 h 6,1 km/h (2 Bft)
14.11.2011 15:00 19,1 C 11,5 C 0,0 UV-I 1,8 C 42 % 58 % 50 % 1024,0 hPa 0,0 l/m 3,0 km/h (1 Bft) 0,50 h 0,00 h 3,3 km/h (1 Bft)
14.11.2011 16:00 18,2 C 9,8 C 0,0 UV-I 0,0 C 44 % 62 % 0 % 1023,0 hPa 0,0 l/m 0,1 km/h (0 Bft) 0,00 h 0,00 h 0,0 km/h (0 Bft)
14.11.2011 17:00 17,3 C 6,9 C 0,0 UV-I 0,0 C 45 % 69 % 0 % 1022,3 hPa 0,0 l/m 0,0 km/h (0 Bft) 0,00 h 0,00 h 0,0 km/h (0 Bft)
14.11.2011 18:00 16,6 C 5,3 C 0,0 UV-I 0,0 C 46 % 75 % 0 % 1022,3 hPa 0,0 l/m 0,0 km/h (0 Bft) 0,00 h 0,00 h 0,0 km/h (0 Bft)
14.11.2011 19:00 16,1 C 5,0 C 0,0 UV-I 0,0 C 47 % 77 % 0 % 1022,4 hPa 0,0 l/m 0,1 km/h (0 Bft) 0,00 h 0,00 h 0,4 km/h (0 Bft)
14.11.2011 20:00 15,9 C 3,9 C 0,0 UV-I 0,0 C 47 % 80 % 0 % 1022,0 hPa 0,0 l/m 0,0 km/h (0 Bft) 0,00 h 0,00 h 0,1 km/h (0 Bft)
14.11.2011 21:00 15,7 C 3,8 C 0,0 UV-I 0,0 C 48 % 82 % 0 % 1021,9 hPa 0,0 l/m 0,7 km/h (0 Bft) 0,00 h 0,00 h 1,0 km/h (0 Bft)
14.11.2011 22:00 15,6 C 3,7 C 0,0 UV-I 0,0 C 48 % 83 % 0 % 1021,6 hPa 0,0 l/m 2,4 km/h (1 Bft) 0,00 h 0,00 h 3,5 km/h (1 Bft)
14.11.2011 23:00 15,5 C 3,4 C 0,0 UV-I 0,0 C 48 % 83 % 0 % 1021,3 hPa 0,0 l/m 0,9 km/h (0 Bft) 0,00 h 0,00 h 1,2 km/h (1 Bft)
15.11.2011 00:00 15,4 C 2,9 C 0,0 UV-I 0,0 C 48 % 84 % 0 % 1021,2 hPa 0,0 l/m 0,4 km/h (0 Bft) 0,00 h 0,00 h 0,8 km/h (0 Bft)
15.11.2011 01:00 15,4 C 2,4 C 0,0 UV-I 0,0 C 48 % 85 % 0 % 1020,8 hPa 0,0 l/m 0,5 km/h (0 Bft) 0,00 h 0,00 h 0,5 km/h (0 Bft)
15.11.2011 02:00 15,2 C 2,1 C 0,0 UV-I 0,0 C 48 % 86 % 0 % 1020,7 hPa 0,0 l/m 1,3 km/h (1 Bft) 0,00 h 0,00 h 2,2 km/h (1 Bft)
15.11.2011 03:00 15,2 C 2,0 C 0,0 UV-I 0,0 C 48 % 87 % 0 % 1020,6 hPa 0,0 l/m 1,3 km/h (1 Bft) 0,00 h 0,00 h 1,8 km/h (1 Bft)
15.11.2011 04:00 15,2 C 1,7 C 0,0 UV-I 0,0 C 48 % 87 % 0 % 1020,1 hPa 0,0 l/m 0,2 km/h (0 Bft) 0,00 h 0,00 h 0,4 km/h (0 Bft)
15.11.2011 05:00 15,1 C 1,0 C 0,0 UV-I 0,0 C 48 % 87 % 0 % 1019,9 hPa 0,0 l/m 0,0 km/h (0 Bft) 0,00 h 0,00 h 0,2 km/h (0 Bft)
15.11.2011 06:00 15,0 C 0,0 C 0,0 UV-I 0,0 C 47 % 87 % 0 % 1019,6 hPa 0,0 l/m 0,0 km/h (0 Bft) 0,00 h 0,00 h 0,1 km/h (0 Bft)
15.11.2011 07:00 14,8 C -0,2 C 0,0 UV-I 0,0 C 47 % 89 % 0 % 1019,9 hPa 0,0 l/m 0,4 km/h (0 Bft) 0,00 h 0,00 h 0,6 km/h (0 Bft)
15.11.2011 08:00 14,8 C -0,7 C 0,0 UV-I 0,0 C 47 % 89 % 0 % 1020,0 hPa 0,0 l/m 0,0 km/h (0 Bft) 0,00 h 0,00 h 0,0 km/h (0 Bft)
15.11.2011 09:00 14,8 C 0,5 C 0,0 UV-I 2,6 C 47 % 91 % 46 % 1020,1 hPa 0,0 l/m 0,0 km/h (0 Bft) 0,47 h 0,00 h 0,1 km/h (0 Bft)
15.11.2011 10:00 14,9 C 3,3 C 0,3 UV-I 6,7 C 47 % 88 % 100 % 1020,2 hPa 0,0 l/m 1,4 km/h (1 Bft) 1,00 h 0,00 h 1,8 km/h (1 Bft)
15.11.2011 11:00 15,2 C 5,7 C 0,5 UV-I 7,1 C 47 % 83 % 100 % 1020,0 hPa 0,0 l/m 2,3 km/h (1 Bft) 1,00 h 0,00 h 3,6 km/h (1 Bft)
15.11.2011 12:00 15,5 C 8,5 C 0,8 UV-I 6,0 C 47 % 71 % 100 % 1019,6 hPa 0,0 l/m 5,0 km/h (1 Bft) 1,00 h 0,00 h 5,8 km/h (1 Bft)
15.11.2011 13:00 16,5 C 10,6 C 0,7 UV-I 4,9 C 46 % 60 % 100 % 1019,3 hPa 0,0 l/m 7,1 km/h (2 Bft) 1,00 h 0,00 h 9,2 km/h (2 Bft)
15.11.2011 14:00 18,1 C 12,1 C 0,5 UV-I 4,6 C 44 % 54 % 100 % 1019,6 hPa 0,0 l/m 5,4 km/h (1 Bft) 1,00 h 0,00 h 5,6 km/h (1 Bft)
15.11.2011 15:00 18,6 C 10,5 C 0,1 UV-I 2,3 C 42 % 60 % 52 % 1019,5 hPa 0,0 l/m 1,7 km/h (1 Bft) 0,53 h 0,00 h 2,2 km/h (1 Bft)
15.11.2011 16:00 17,8 C 8,4 C 0,0 UV-I 0,0 C 43 % 66 % 0 % 1019,0 hPa 0,0 l/m 0,3 km/h (0 Bft) 0,00 h 0,00 h 0,5 km/h (0 Bft)
15.11.2011 17:00 16,9 C 6,4 C 0,0 UV-I 0,0 C 44 % 71 % 0 % 1018,7 hPa 0,0 l/m 0,0 km/h (0 Bft) 0,00 h 0,00 h 0,0 km/h (0 Bft)
15.11.2011 18:00 16,2 C 5,3 C 0,0 UV-I 0,0 C 46 % 75 % 0 % 1018,9 hPa 0,0 l/m 0,0 km/h (0 Bft) 0,00 h 0,00 h 0,0 km/h (0 Bft)
15.11.2011 19:00 15,8 C 4,3 C 0,0 UV-I 0,0 C 46 % 78 % 0 % 1019,1 hPa 0,0 l/m 0,0 km/h (0 Bft) 0,00 h 0,00 h 0,1 km/h (0 Bft)
15.11.2011 20:00 15,6 C 2,9 C 0,0 UV-I 0,0 C 46 % 80 % 0 % 1018,9 hPa 0,0 l/m 0,0 km/h (0 Bft) 0,00 h 0,00 h 0,0 km/h (0 Bft)
15.11.2011 21:00 15,3 C 1,9 C 0,0 UV-I 0,0 C 46 % 83 % 0 % 1019,0 hPa 0,0 l/m 0,0 km/h (0 Bft) 0,00 h 0,00 h 0,0 km/h (0 Bft)
15.11.2011 22:00 15,1 C 1,6 C 0,0 UV-I 0,0 C 47 % 85 % 0 % 1018,8 hPa 0,0 l/m 0,0 km/h (0 Bft) 0,00 h 0,00 h 0,0 km/h (0 Bft)
15.11.2011 23:00 15,1 C 1,7 C 0,0 UV-I 0,0 C 47 % 87 % 0 % 1019,1 hPa 0,0 l/m 0,0 km/h (0 Bft) 0,00 h 0,00 h 0,0 km/h (0 Bft)
16.11.2011 00:00 15,0 C 0,8 C 0,0 UV-I 0,0 C 47 % 86 % 0 % 1019,1 hPa 0,0 l/m 0,0 km/h (0 Bft) 0,00 h 0,00 h 0,0 km/h (0 Bft)
16.11.2011 01:00 15,0 C -0,2 C 0,0 UV-I 0,0 C 46 % 87 % 0 % 1019,2 hPa 0,0 l/m 0,0 km/h (0 Bft) 0,00 h 0,00 h 0,0 km/h (0 Bft)
16.11.2011 02:00 14,8 C -0,4 C 0,0 UV-I 0,0 C 46 % 88 % 0 % 1019,1 hPa 0,0 l/m 0,0 km/h (0 Bft) 0,00 h 0,00 h 0,0 km/h (0 Bft)
16.11.2011 03:00 14,8 C -0,5 C 0,0 UV-I 0,0 C 46 % 89 % 0 % 1019,1 hPa 0,0 l/m 0,0 km/h (0 Bft) 0,00 h 0,00 h 0,0 km/h (0 Bft)
16.11.2011 04:00 14,8 C -0,5 C 0,0 UV-I 0,0 C 46 % 90 % 0 % 1018,5 hPa 0,0 l/m 0,0 km/h (0 Bft) 0,00 h 0,00 h 0,0 km/h (0 Bft)
16.11.2011 05:00 14,7 C -0,7 C 0,0 UV-I 0,0 C 46 % 90 % 0 % 1018,8 hPa 0,0 l/m 0,0 km/h (0 Bft) 0,00 h 0,00 h 0,0 km/h (0 Bft)
16.11.2011 06:00 14,6 C -0,6 C 0,0 UV-I 0,0 C 46 % 90 % 0 % 1018,7 hPa 0,0 l/m 0,3 km/h (0 Bft) 0,00 h 0,13 h 0,8 km/h (0 Bft)
16.11.2011 07:00 14,5 C -0,4 C 0,0 UV-I 0,0 C 46 % 91 % 0 % 1018,7 hPa 0,0 l/m 1,7 km/h (1 Bft) 0,00 h 0,00 h 2,6 km/h (1 Bft)
16.11.2011 08:00 14,4 C -0,4 C 0,0 UV-I 0,0 C 46 % 91 % 0 % 1019,0 hPa 0,0 l/m 0,7 km/h (0 Bft) 0,00 h 0,00 h 0,9 km/h (0 Bft)
16.11.2011 09:00 14,4 C 0,7 C 0,0 UV-I 1,3 C 46 % 91 % 35 % 1019,2 hPa 0,0 l/m 0,7 km/h (0 Bft) 0,40 h 0,00 h 1,3 km/h (1 Bft)
16.11.2011 10:00 14,6 C 3,6 C 0,3 UV-I 5,0 C 46 % 88 % 100 % 1019,3 hPa 0,0 l/m 5,2 km/h (1 Bft) 1,00 h 0,00 h 7,3 km/h (2 Bft)
16.11.2011 11:00 14,8 C 6,2 C 0,6 UV-I 4,7 C 46 % 78 % 100 % 1019,3 hPa 0,0 l/m 8,9 km/h (2 Bft) 1,00 h 0,00 h 10,3 km/h (2 Bft)
16.11.2011 12:00 15,1 C 7,8 C 0,8 UV-I 4,5 C 45 % 68 % 100 % 1018,8 hPa 0,0 l/m 10,3 km/h (2 Bft) 1,00 h 0,00 h 12,7 km/h (3 Bft)
16.11.2011 13:00 16,0 C 8,8 C 0,7 UV-I 4,2 C 44 % 62 % 100 % 1018,9 hPa 0,0 l/m 9,9 km/h (2 Bft) 0,97 h 0,00 h 9,7 km/h (2 Bft)
16.11.2011 14:00 17,4 C 9,6 C 0,4 UV-I 3,3 C 41 % 58 % 91 % 1019,1 hPa 0,0 l/m 9,8 km/h (2 Bft) 1,00 h 0,00 h 11,7 km/h (2 Bft)
16.11.2011 15:00 17,8 C 9,0 C 0,0 UV-I 1,2 C 40 % 59 % 35 % 1018,9 hPa 0,0 l/m 7,1 km/h (2 Bft) 0,40 h 0,00 h 7,5 km/h (2 Bft)
16.11.2011 16:00 17,0 C 8,1 C 0,0 UV-I 0,0 C 41 % 60 % 0 % 1018,1 hPa 0,0 l/m 6,2 km/h (2 Bft) 0,00 h 0,00 h 7,7 km/h (2 Bft)
16.11.2011 17:00 16,2 C 6,9 C 0,0 UV-I 0,0 C 42 % 63 % 0 % 1018,1 hPa 0,0 l/m 6,0 km/h (2 Bft) 0,00 h 0,00 h 6,1 km/h (2 Bft)
16.11.2011 18:00 15,6 C 5,8 C 0,0 UV-I 0,0 C 43 % 67 % 0 % 1018,0 hPa 0,0 l/m 5,9 km/h (2 Bft) 0,00 h 0,00 h 6,7 km/h (2 Bft)
16.11.2011 19:00 15,3 C 4,9 C 0,0 UV-I 0,0 C 43 % 72 % 0 % 1018,1 hPa 0,0 l/m 9,0 km/h (2 Bft) 0,00 h 0,00 h 9,4 km/h (2 Bft)
16.11.2011 20:00 15,1 C 4,3 C 0,0 UV-I 0,0 C 44 % 75 % 0 % 1018,1 hPa 0,0 l/m 10,9 km/h (2 Bft) 0,00 h 0,00 h 12,7 km/h (3 Bft)
16.11.2011 21:00 14,8 C 3,6 C 0,0 UV-I 0,0 C 44 % 76 % 0 % 1018,2 hPa 0,0 l/m 12,8 km/h (3 Bft) 0,00 h 0,00 h 16,1 km/h (3 Bft)
16.11.2011 22:00 14,8 C 2,8 C 0,0 UV-I 0,0 C 44 % 78 % 0 % 1018,6 hPa 0,0 l/m 12,1 km/h (2 Bft) 0,00 h 0,00 h 12,6 km/h (3 Bft)
16.11.2011 23:00 14,7 C 1,9 C 0,0 UV-I 0,0 C 44 % 81 % 0 % 1018,8 hPa 0,0 l/m 9,5 km/h (2 Bft) 0,00 h 0,00 h 9,4 km/h (2 Bft)
17.11.2011 00:00 14,6 C 1,4 C 0,0 UV-I 0,0 C 44 % 83 % 0 % 1019,1 hPa 0,0 l/m 10,0 km/h (2 Bft) 0,00 h 0,03 h 11,4 km/h (2 Bft)
17.11.2011 01:00 14,5 C 1,0 C 0,0 UV-I 0,0 C 44 % 85 % 0 % 1018,9 hPa 0,0 l/m 9,6 km/h (2 Bft) 0,00 h 0,00 h 9,6 km/h (2 Bft)
17.11.2011 02:00 14,3 C 0,7 C 0,0 UV-I 0,0 C 44 % 86 % 0 % 1018,7 hPa 0,0 l/m 7,7 km/h (2 Bft) 0,00 h 0,00 h 8,8 km/h (2 Bft)
17.11.2011 03:00 14,4 C 0,3 C 0,0 UV-I 0,0 C 44 % 87 % 0 % 1018,7 hPa 0,0 l/m 7,0 km/h (2 Bft) 0,00 h 0,03 h 9,6 km/h (2 Bft)
17.11.2011 04:00 14,2 C 0,2 C 0,0 UV-I 0,0 C 45 % 88 % 0 % 1018,9 hPa 0,0 l/m 7,5 km/h (2 Bft) 0,00 h 0,07 h 11,2 km/h (2 Bft)
17.11.2011 05:00 14,1 C 0,2 C 0,0 UV-I 0,0 C 45 % 89 % 0 % 1019,1 hPa 0,0 l/m 8,3 km/h (2 Bft) 0,00 h 0,00 h 12,6 km/h (3 Bft)
17.11.2011 06:00 13,9 C 0,3 C 0,0 UV-I 0,0 C 45 % 89 % 0 % 1019,1 hPa 0,0 l/m 10,1 km/h (2 Bft) 0,00 h 0,00 h 12,7 km/h (3 Bft)
17.11.2011 07:00 14,0 C 0,4 C 0,0 UV-I 0,0 C 45 % 89 % 0 % 1019,4 hPa 0,0 l/m 8,8 km/h (2 Bft) 0,00 h 0,03 h 10,1 km/h (2 Bft)
17.11.2011 08:00 13,8 C 0,5 C 0,0 UV-I 0,0 C 45 % 90 % 0 % 1019,7 hPa 0,0 l/m 9,0 km/h (2 Bft) 0,00 h 0,00 h 11,4 km/h (2 Bft)
17.11.2011 09:00 13,9 C 1,6 C 0,0 UV-I 0,0 C 45 % 90 % 0 % 1019,9 hPa 0,0 l/m 9,2 km/h (2 Bft) 0,00 h 0,00 h 10,8 km/h (2 Bft)
17.11.2011 10:00 14,0 C 2,9 C 0,1 UV-I 0,8 C 46 % 90 % 22 % 1020,3 hPa 0,0 l/m 9,7 km/h (2 Bft) 0,20 h 0,00 h 10,6 km/h (2 Bft)
17.11.2011 11:00 14,3 C 4,8 C 0,6 UV-I 4,1 C 46 % 88 % 96 % 1020,4 hPa 0,0 l/m 8,7 km/h (2 Bft) 0,93 h 0,00 h 8,6 km/h (2 Bft)
17.11.2011 12:00 14,6 C 6,8 C 0,7 UV-I 4,5 C 46 % 84 % 100 % 1020,3 hPa 0,0 l/m 7,9 km/h (2 Bft) 1,00 h 0,00 h 7,4 km/h (2 Bft)
17.11.2011 13:00 15,4 C 8,5 C 0,7 UV-I 4,7 C 47 % 80 % 100 % 1020,5 hPa 0,0 l/m 5,5 km/h (1 Bft) 1,00 h 0,00 h 6,6 km/h (2 Bft)
17.11.2011 14:00 16,2 C 8,1 C 0,2 UV-I 0,6 C 45 % 77 % 18 % 1020,7 hPa 0,0 l/m 6,3 km/h (2 Bft) 0,07 h 0,00 h 6,6 km/h (2 Bft)
17.11.2011 15:00 15,8 C 7,4 C 0,0 UV-I 0,0 C 45 % 80 % 0 % 1020,3 hPa 0,0 l/m 3,1 km/h (1 Bft) 0,00 h 0,00 h 4,0 km/h (1 Bft)
17.11.2011 16:00 15,4 C 7,5 C 0,0 UV-I 0,0 C 47 % 80 % 0 % 1020,7 hPa 0,0 l/m 4,8 km/h (1 Bft) 0,00 h 0,00 h 5,5 km/h (1 Bft)
17.11.2011 17:00 15,2 C 7,6 C 0,0 UV-I 0,0 C 48 % 81 % 0 % 1020,6 hPa 0,0 l/m 3,7 km/h (1 Bft) 0,00 h 0,00 h 4,7 km/h (1 Bft)
17.11.2011 18:00 15,2 C 7,5 C 0,0 UV-I 0,0 C 48 % 81 % 0 % 1020,9 hPa 0,0 l/m 4,2 km/h (1 Bft) 0,00 h 0,00 h 5,2 km/h (1 Bft)
17.11.2011 19:00 15,1 C 7,2 C 0,0 UV-I 0,0 C 49 % 82 % 0 % 1021,2 hPa 0,0 l/m 6,2 km/h (2 Bft) 0,00 h 0,00 h 6,0 km/h (2 Bft)
17.11.2011 20:00 15,1 C 7,2 C 0,0 UV-I 0,0 C 49 % 83 % 0 % 1021,3 hPa 0,0 l/m 5,4 km/h (1 Bft) 0,00 h 0,00 h 6,1 km/h (2 Bft)
17.11.2011 21:00 15,1 C 7,2 C 0,0 UV-I 0,0 C 50 % 83 % 0 % 1021,6 hPa 0,0 l/m 6,5 km/h (2 Bft) 0,00 h 0,00 h 7,2 km/h (2 Bft)
17.11.2011 22:00 15,1 C 7,2 C 0,0 UV-I 0,0 C 50 % 83 % 0 % 1021,8 hPa 0,0 l/m 5,6 km/h (1 Bft) 0,00 h 0,00 h 6,1 km/h (2 Bft)
17.11.2011 23:00 15,1 C 7,2 C 0,0 UV-I 0,0 C 50 % 84 % 0 % 1021,7 hPa 0,0 l/m 3,4 km/h (1 Bft) 0,00 h 0,00 h 4,4 km/h (1 Bft)
18.11.2011 00:00 15,2 C 7,2 C 0,0 UV-I 0,0 C 51 % 85 % 0 % 1021,7 hPa 0,0 l/m 3,7 km/h (1 Bft) 0,00 h 0,00 h 4,5 km/h (1 Bft)
18.11.2011 01:00 15,2 C 7,2 C 0,0 UV-I 0,0 C 51 % 86 % 0 % 1021,5 hPa 0,0 l/m 3,6 km/h (1 Bft) 0,00 h 0,00 h 4,4 km/h (1 Bft)
18.11.2011 02:00 15,1 C 7,2 C 0,0 UV-I 0,0 C 51 % 86 % 0 % 1021,7 hPa 0,0 l/m 3,7 km/h (1 Bft) 0,00 h 0,03 h 4,6 km/h (1 Bft)
18.11.2011 03:00 15,1 C 7,4 C 0,0 UV-I 0,0 C 52 % 86 % 0 % 1021,6 hPa 0,0 l/m 3,9 km/h (1 Bft) 0,00 h 0,00 h 4,3 km/h (1 Bft)
18.11.2011 04:00 15,2 C 7,5 C 0,0 UV-I 0,0 C 52 % 87 % 0 % 1021,6 hPa 0,0 l/m 2,9 km/h (1 Bft) 0,00 h 0,00 h 3,6 km/h (1 Bft)
18.11.2011 05:00 15,2 C 7,6 C 0,0 UV-I 0,0 C 52 % 87 % 0 % 1021,7 hPa 0,0 l/m 3,0 km/h (1 Bft) 0,00 h 0,00 h 3,6 km/h (1 Bft)
18.11.2011 06:00 15,3 C 7,7 C 0,0 UV-I 0,0 C 52 % 87 % 0 % 1021,6 hPa 0,0 l/m 3,0 km/h (1 Bft) 0,00 h 0,00 h 4,2 km/h (1 Bft)
18.11.2011 07:00 15,4 C 7,7 C 0,0 UV-I 0,0 C 53 % 87 % 0 % 1021,5 hPa 0,0 l/m 3,1 km/h (1 Bft) 0,00 h 0,00 h 3,4 km/h (1 Bft)
18.11.2011 08:00 15,4 C 7,7 C 0,0 UV-I 0,0 C 53 % 88 % 0 % 1021,8 hPa 0,0 l/m 2,6 km/h (1 Bft) 0,00 h 0,00 h 3,2 km/h (1 Bft)
18.11.2011 09:00 15,4 C 7,8 C 0,0 UV-I 0,0 C 53 % 88 % 0 % 1022,2 hPa 0,0 l/m 3,5 km/h (1 Bft) 0,00 h 0,00 h 4,8 km/h (1 Bft)
18.11.2011 10:00 15,5 C 8,1 C 0,0 UV-I 0,1 C 53 % 88 % 2 % 1022,4 hPa 0,1 l/m 2,7 km/h (1 Bft) 0,00 h 0,23 h 3,2 km/h (1 Bft)
18.11.2011 11:00 15,6 C 8,3 C 0,0 UV-I 0,1 C 54 % 89 % 4 % 1022,4 hPa 0,0 l/m 3,8 km/h (1 Bft) 0,00 h 0,00 h 4,6 km/h (1 Bft)
18.11.2011 12:00 15,8 C 9,3 C 0,1 UV-I 0,8 C 54 % 88 % 22 % 1022,0 hPa 0,0 l/m 3,7 km/h (1 Bft) 0,00 h 0,00 h 5,0 km/h (1 Bft)
18.11.2011 13:00 16,1 C 10,2 C 0,2 UV-I 1,0 C 54 % 87 % 30 % 1021,7 hPa 0,1 l/m 3,6 km/h (1 Bft) 0,00 h 0,10 h 4,7 km/h (1 Bft)
18.11.2011 14:00 17,0 C 11,3 C 0,3 UV-I 3,0 C 54 % 83 % 77 % 1021,6 hPa 0,0 l/m 5,1 km/h (1 Bft) 0,67 h 0,00 h 6,2 km/h (2 Bft)
18.11.2011 15:00 17,9 C 10,7 C 0,0 UV-I 1,3 C 51 % 82 % 38 % 1021,6 hPa 0,0 l/m 3,4 km/h (1 Bft) 0,40 h 0,00 h 4,1 km/h (1 Bft)
18.11.2011 16:00 17,4 C 9,5 C 0,0 UV-I 0,0 C 52 % 84 % 0 % 1021,0 hPa 0,0 l/m 2,0 km/h (1 Bft) 0,00 h 0,00 h 1,7 km/h (1 Bft)
18.11.2011 17:00 16,7 C 8,1 C 0,0 UV-I 0,0 C 53 % 85 % 0 % 1021,0 hPa 0,0 l/m 0,0 km/h (0 Bft) 0,00 h 0,03 h 0,0 km/h (0 Bft)
18.11.2011 18:00 16,3 C 7,2 C 0,0 UV-I 0,0 C 53 % 87 % 0 % 1020,6 hPa 0,0 l/m 0,6 km/h (0 Bft) 0,00 h 0,00 h 0,6 km/h (0 Bft)
18.11.2011 19:00 16,0 C 7,3 C 0,0 UV-I 0,0 C 54 % 89 % 0 % 1020,5 hPa 0,0 l/m 0,4 km/h (0 Bft) 0,00 h 0,00 h 0,6 km/h (0 Bft)
18.11.2011 20:00 15,9 C 7,0 C 0,0 UV-I 0,0 C 54 % 89 % 0 % 1020,3 hPa 0,0 l/m 0,0 km/h (0 Bft) 0,00 h 0,03 h 0,0 km/h (0 Bft)
18.11.2011 21:00 15,9 C 7,2 C 0,0 UV-I 0,0 C 55 % 90 % 0 % 1020,1 hPa 0,0 l/m 0,9 km/h (0 Bft) 0,00 h 0,03 h 1,4 km/h (1 Bft)
18.11.2011 22:00 15,8 C 7,4 C 0,0 UV-I 0,0 C 55 % 91 % 0 % 1020,0 hPa 0,0 l/m 1,4 km/h (1 Bft) 0,00 h 0,00 h 1,4 km/h (1 Bft)
18.11.2011 23:00 15,9 C 7,5 C 0,0 UV-I 0,0 C 55 % 91 % 0 % 1019,9 hPa 0,0 l/m 1,5 km/h (1 Bft) 0,00 h 0,03 h 2,6 km/h (1 Bft)
19.11.2011 00:00 15,9 C 7,9 C 0,0 UV-I 0,0 C 56 % 91 % 0 % 1019,6 hPa 0,0 l/m 1,8 km/h (1 Bft) 0,00 h 0,00 h 2,7 km/h (1 Bft)
19.11.2011 01:00 15,8 C 8,0 C 0,0 UV-I 0,0 C 56 % 91 % 0 % 1019,6 hPa 0,0 l/m 2,5 km/h (1 Bft) 0,00 h 0,00 h 3,6 km/h (1 Bft)
19.11.2011 02:00 15,9 C 8,2 C 0,0 UV-I 0,0 C 56 % 91 % 0 % 1019,2 hPa 0,0 l/m 4,1 km/h (1 Bft) 0,00 h 0,00 h 5,4 km/h (1 Bft)
19.11.2011 03:00 16,0 C 8,4 C 0,0 UV-I 0,0 C 56 % 91 % 0 % 1018,8 hPa 0,0 l/m 4,1 km/h (1 Bft) 0,00 h 0,00 h 5,6 km/h (1 Bft)
19.11.2011 04:00 16,0 C 8,3 C 0,0 UV-I 0,0 C 56 % 90 % 0 % 1018,6 hPa 0,0 l/m 1,7 km/h (1 Bft) 0,00 h 0,00 h 2,3 km/h (1 Bft)
19.11.2011 05:00 16,0 C 8,3 C 0,0 UV-I 0,0 C 56 % 90 % 0 % 1018,6 hPa 0,0 l/m 2,7 km/h (1 Bft) 0,00 h 0,00 h 4,5 km/h (1 Bft)
19.11.2011 06:00 16,0 C 8,4 C 0,0 UV-I 0,0 C 56 % 90 % 0 % 1018,5 hPa 0,0 l/m 4,4 km/h (1 Bft) 0,00 h 0,00 h 6,0 km/h (2 Bft)
19.11.2011 07:00 16,0 C 8,2 C 0,0 UV-I 0,0 C 56 % 89 % 0 % 1018,6 hPa 0,0 l/m 6,0 km/h (2 Bft) 0,00 h 0,00 h 7,8 km/h (2 Bft)
19.11.2011 08:00 15,9 C 7,7 C 0,0 UV-I 0,0 C 55 % 89 % 0 % 1018,6 hPa 0,0 l/m 7,1 km/h (2 Bft) 0,00 h 0,00 h 7,7 km/h (2 Bft)
19.11.2011 09:00 15,9 C 8,0 C 0,0 UV-I 1,3 C 55 % 89 % 36 % 1018,8 hPa 0,0 l/m 7,6 km/h (2 Bft) 0,40 h 0,00 h 9,1 km/h (2 Bft)
19.11.2011 10:00 16,0 C 9,3 C 0,2 UV-I 3,6 C 55 % 87 % 97 % 1018,8 hPa 0,0 l/m 9,8 km/h (2 Bft) 1,00 h 0,00 h 11,6 km/h (2 Bft)
19.11.2011 11:00 16,2 C 10,5 C 0,5 UV-I 3,9 C 55 % 83 % 100 % 1018,9 hPa 0,0 l/m 9,4 km/h (2 Bft) 1,00 h 0,00 h 11,9 km/h (2 Bft)
19.11.2011 12:00 16,5 C 11,6 C 0,5 UV-I 4,0 C 54 % 78 % 100 % 1018,4 hPa 0,0 l/m 8,8 km/h (2 Bft) 0,98 h 0,00 h 11,3 km/h (2 Bft)
19.11.2011 13:00 17,2 C 12,4 C 0,4 UV-I 3,8 C 54 % 74 % 99 % 1018,6 hPa 0,0 l/m 7,6 km/h (2 Bft) 1,00 h 0,00 h 7,8 km/h (2 Bft)
19.11.2011 14:00 18,6 C 12,9 C 0,3 UV-I 2,4 C 51 % 71 % 67 % 1018,8 hPa 0,0 l/m 5,2 km/h (1 Bft) 0,93 h 0,00 h 6,1 km/h (2 Bft)
19.11.2011 15:00 18,6 C 12,1 C 0,0 UV-I 0,4 C 49 % 72 % 11 % 1018,6 hPa 0,0 l/m 4,2 km/h (1 Bft) 0,07 h 0,00 h 4,5 km/h (1 Bft)
19.11.2011 16:00 18,0 C 11,0 C 0,0 UV-I 0,0 C 50 % 73 % 0 % 1018,3 hPa 0,0 l/m 2,5 km/h (1 Bft) 0,00 h 0,00 h 3,3 km/h (1 Bft)
19.11.2011 17:00 17,4 C 10,0 C 0,0 UV-I 0,0 C 51 % 74 % 0 % 1018,1 hPa 0,0 l/m 5,7 km/h (1 Bft) 0,00 h 0,00 h 6,6 km/h (2 Bft)
19.11.2011 18:00 17,0 C 9,1 C 0,0 UV-I 0,0 C 51 % 76 % 0 % 1018,2 hPa 0,0 l/m 3,8 km/h (1 Bft) 0,00 h 0,00 h 4,3 km/h (1 Bft)
19.11.2011 19:00 16,8 C 8,3 C 0,0 UV-I 0,0 C 52 % 78 % 0 % 1018,2 hPa 0,0 l/m 4,5 km/h (1 Bft) 0,00 h 0,00 h 5,4 km/h (1 Bft)
19.11.2011 20:00 16,6 C 7,8 C 0,0 UV-I 0,0 C 51 % 79 % 0 % 1018,4 hPa 0,0 l/m 3,9 km/h (1 Bft) 0,00 h 0,00 h 4,1 km/h (1 Bft)
19.11.2011 21:00 16,4 C 7,2 C 0,0 UV-I 0,0 C 51 % 81 % 0 % 1018,7 hPa 0,0 l/m 5,0 km/h (1 Bft) 0,00 h 0,00 h 6,0 km/h (2 Bft)
19.11.2011 22:00 16,3 C 6,6 C 0,0 UV-I 0,0 C 51 % 82 % 0 % 1019,4 hPa 0,0 l/m 3,8 km/h (1 Bft) 0,00 h 0,00 h 4,2 km/h (1 Bft)
19.11.2011 23:00 16,2 C 5,6 C 0,0 UV-I 0,0 C 51 % 83 % 0 % 1019,5 hPa 0,0 l/m 0,0 km/h (0 Bft) 0,00 h 0,00 h 0,0 km/h (0 Bft)
20.11.2011 00:00 16,0 C 4,7 C 0,0 UV-I 0,0 C 51 % 85 % 0 % 1019,2 hPa 0,0 l/m 0,1 km/h (0 Bft) 0,00 h 0,00 h 0,2 km/h (0 Bft)
20.11.2011 01:00 15,8 C 4,3 C 0,0 UV-I 0,0 C 51 % 86 % 0 % 1018,9 hPa 0,0 l/m 0,1 km/h (0 Bft) 0,00 h 0,07 h 0,1 km/h (0 Bft)
20.11.2011 02:00 15,8 C 4,4 C 0,0 UV-I 0,0 C 51 % 88 % 0 % 1018,9 hPa 0,0 l/m 1,2 km/h (1 Bft) 0,00 h 0,03 h 1,7 km/h (1 Bft)
20.11.2011 03:00 15,6 C 4,1 C 0,0 UV-I 0,0 C 51 % 88 % 0 % 1018,9 hPa 0,0 l/m 0,1 km/h (0 Bft) 0,00 h 0,00 h 0,0 km/h (0 Bft)
20.11.2011 04:00 15,6 C 3,6 C 0,0 UV-I 0,0 C 51 % 88 % 0 % 1018,5 hPa 0,0 l/m 0,1 km/h (0 Bft) 0,00 h 0,03 h 0,0 km/h (0 Bft)
20.11.2011 05:00 15,5 C 2,5 C 0,0 UV-I 0,0 C 51 % 88 % 0 % 1018,5 hPa 0,0 l/m 0,0 km/h (0 Bft) 0,00 h 0,03 h 0,0 km/h (0 Bft)
20.11.2011 06:00 15,4 C 2,2 C 0,0 UV-I 0,0 C 50 % 90 % 0 % 1018,4 hPa 0,0 l/m 0,0 km/h (0 Bft) 0,00 h 0,00 h 0,0 km/h (0 Bft)
20.11.2011 07:00 15,3 C 2,2 C 0,0 UV-I 0,0 C 50 % 90 % 0 % 1018,5 hPa 0,0 l/m 0,0 km/h (0 Bft) 0,00 h 0,03 h 0,0 km/h (0 Bft)
20.11.2011 08:00 15,2 C 2,5 C 0,0 UV-I 0,0 C 50 % 91 % 0 % 1018,9 hPa 0,0 l/m 0,0 km/h (0 Bft) 0,00 h 0,00 h 0,0 km/h (0 Bft)
20.11.2011 09:00 15,4 C 4,0 C 0,0 UV-I 2,5 C 50 % 92 % 56 % 1019,2 hPa 0,0 l/m 0,0 km/h (0 Bft) 0,53 h 0,07 h 0,0 km/h (0 Bft)
20.11.2011 10:00 15,7 C 6,9 C 0,1 UV-I 6,0 C 51 % 92 % 100 % 1019,2 hPa 0,0 l/m 0,7 km/h (0 Bft) 1,00 h 0,00 h 1,3 km/h (1 Bft)
20.11.2011 11:00 15,9 C 9,8 C 0,4 UV-I 6,1 C 51 % 88 % 100 % 1019,5 hPa 0,0 l/m 1,6 km/h (1 Bft) 1,00 h 0,00 h 2,4 km/h (1 Bft)
20.11.2011 12:00 16,2 C 11,9 C 0,6 UV-I 6,7 C 52 % 79 % 100 % 1019,0 hPa 0,0 l/m 0,9 km/h (0 Bft) 1,00 h 0,00 h 1,0 km/h (0 Bft)
20.11.2011 13:00 16,9 C 13,0 C 0,5 UV-I 5,4 C 52 % 71 % 100 % 1019,1 hPa 0,0 l/m 2,3 km/h (1 Bft) 1,00 h 0,00 h 3,7 km/h (1 Bft)
20.11.2011 14:00 18,4 C 13,3 C 0,3 UV-I 3,2 C 49 % 70 % 85 % 1019,2 hPa 0,0 l/m 2,5 km/h (1 Bft) 1,00 h 0,00 h 2,8 km/h (1 Bft)
20.11.2011 15:00 18,7 C 11,9 C 0,0 UV-I 1,1 C 48 % 71 % 32 % 1019,0 hPa 0,0 l/m 0,6 km/h (0 Bft) 0,33 h 0,00 h 0,8 km/h (0 Bft)
20.11.2011 16:00 17,9 C 10,6 C 0,0 UV-I 0,0 C 49 % 74 % 0 % 1018,4 hPa 0,0 l/m 0,0 km/h (0 Bft) 0,00 h 0,00 h 0,0 km/h (0 Bft)
20.11.2011 17:00 17,2 C 8,1 C 0,0 UV-I 0,0 C 50 % 78 % 0 % 1018,0 hPa 0,0 l/m 0,0 km/h (0 Bft) 0,00 h 0,03 h 0,0 km/h (0 Bft)
20.11.2011 18:00 16,6 C 6,2 C 0,0 UV-I 0,0 C 51 % 82 % 0 % 1018,1 hPa 0,0 l/m 0,0 km/h (0 Bft) 0,00 h 0,00 h 0,0 km/h (0 Bft)
20.11.2011 19:00 16,3 C 4,9 C 0,0 UV-I 0,0 C 51 % 85 % 0 % 1018,0 hPa 0,0 l/m 0,0 km/h (0 Bft) 0,00 h 0,00 h 0,0 km/h (0 Bft)
20.11.2011 20:00 16,0 C 4,0 C 0,0 UV-I 0,0 C 51 % 86 % 0 % 1018,0 hPa 0,0 l/m 0,0 km/h (0 Bft) 0,00 h 0,03 h 0,0 km/h (0 Bft)
20.11.2011 21:00 15,9 C 3,4 C 0,0 UV-I 0,0 C 51 % 88 % 0 % 1017,6 hPa 0,0 l/m 0,0 km/h (0 Bft) 0,00 h 0,03 h 0,0 km/h (0 Bft)
20.11.2011 22:00 15,7 C 2,6 C 0,0 UV-I 0,0 C 51 % 88 % 0 % 1017,8 hPa 0,0 l/m 0,0 km/h (0 Bft) 0,00 h 0,00 h 0,0 km/h (0 Bft)
20.11.2011 23:00 15,6 C 2,0 C 0,0 UV-I 0,0 C 50 % 89 % 0 % 1017,2 hPa 0,0 l/m 0,0 km/h (0 Bft) 0,00 h 0,10 h 0,0 km/h (0 Bft)
Min-Datum _ 17.11.11 15.11.11 14.11.11 14.11.11 16.11.11 15.11.11 14.11.11 20.11.11 - 14.11.11 - - 14.11.11
_ Min-Zeit 06:36 08:30 00:00 00:00 14:46 14:48 00:00 23:46 - 16:10 - - 00:16
Minimum _ 13,8 C -0,9 C 0,0 UV-I 0,0 C 40 % 51 % 0 % 1016,9 hPa - 0,0 km/h (0 Bft) - - 0,0 km/h (0 Bft)
Max-Datum _ 14.11.11 20.11.11 14.11.11 15.11.11 19.11.11 16.11.11 14.11.11 14.11.11 18.11.11 16.11.11 14.11.11 16.11.11 16.11.11
_ Max-Zeit 15:14 14:02 12:00 11:02 00:22 09:36 09:46 00:00 10:42 21:32 09:36 06:24 21:46
Maximum _ 19,4 C 13,7 C 0,8 UV-I 7,6 C 56 % 92 % 100 % 1027,9 hPa 0,1 l/m 15,3 km/h
SO (3 Bft)
0,03 h 0,03 h 33,8 km/h
SO (5 Bft)
Durchschnitt _ 15,8 C 5,8 C 0,1 UV-I 0,9 C 49 % 82 % 20 % 1020,2 hPa #0,2 l/m 3,6 km/h (1 Bft) #33:11 h #1:16 h 4,3 km/h (1 Bft)
© 2012 W. Hausmann